Latest Weather Observations for Hamilton Island

IDQ60801

Issued at 1:32 pm EST Sunday 20 August 2017 (issued every 30 minutes, with the page automatically refreshed every 10 minutes)

About weather observations | Map of weather stations | Latest weather observations for QLD | Other Formats
Station Details ID: 033106 Name: HAMILTON ISLAND AIRPORT Lat: -20.37 Lon: 148.95 Height: 58.66 m
Data from the previous 72 hours. | See also: Recent months at Hamilton Island
Date/Time
EST
Temp
°C
App
Temp
°C
Dew
Point
°C
Rel
Hum
%
Delta-T
°C
Wind Press
QNH
hPa
Press
MSL
hPa
Rain since
9am
mm
Dir  Spd
km/h
Gust
km/h
Spd
kts
Gust
kts
20/01:30pm 19.2 11.3 6.3 43 6.4 SE 37 46 20 25 1018.6 1018.4 0.0
20/01:00pm 18.8 10.4 7.3 47 5.8 SE 41 48 22 26 1019.0 1018.8 0.0
20/12:30pm 19.5 10.8 8.5 49 5.7 SE 44 54 24 29 1019.3 1019.1 0.0
20/12:00pm 18.6 9.3 7.4 48 5.7 SSE 46 57 25 31 1019.6 1019.4 0.0
20/11:30am 18.6 9.3 6.1 44 6.2 SSE 44 54 24 29 1020.1 1019.9 0.0
20/11:00am 19.1 10.1 8.7 51 5.4 SSE 46 54 25 29 1020.6 1020.4 0.0
20/10:30am 18.8 9.8 8.7 52 5.3 SSE 46 59 25 32 1020.8 1020.6 0.0
20/10:00am 18.3 8.4 6.8 47 5.7 SSE 48 57 26 31 1021.0 1020.8 0.0
20/09:30am 18.9 9.9 8.8 52 5.3 SSE 46 59 25 32 1020.9 1020.7 0.0
20/09:00am 18.5 9.0 8.2 51 5.3 SSE 48 57 26 31 1020.7 1020.5 0.0
20/08:30am 18.1 8.0 5.7 44 6.1 SSE 48 56 26 30 1020.4 1020.2 0.0
20/08:00am 17.9 7.5 6.1 46 5.8 SSE 50 57 27 31 1020.1 1019.9 0.0
20/07:30am 18.2 8.6 7.9 51 5.3 SSE 48 61 26 33 1019.7 1019.5 0.0
20/07:00am 18.0 7.9 7.4 50 5.3 SSE 50 61 27 33 1019.2 1019.0 0.0
20/06:30am 18.0 7.7 8.3 53 5.0 SSE 52 61 28 33 1018.9 1018.7 0.0
20/06:00am 18.2 8.6 9.5 57 4.6 SSE 50 59 27 32 1018.5 1018.3 0.0
20/05:30am 18.2 7.9 8.2 52 5.1 SSE 52 63 28 34 1018.1 1018.0 0.0
20/05:00am 18.6 8.8 8.6 52 5.2 SSE 50 61 27 33 1017.8 1017.7 0.0
20/04:30am 19.2 9.7 8.5 50 5.6 SSE 48 57 26 31 1017.7 1017.6 0.0
20/04:00am 20.2 12.6 7.6 44 6.5 SSE 37 44 20 24 1017.5 1017.4 0.0
20/03:30am 20.0 15.5 9.9 52 5.4 SSE 24 32 13 17 1017.5 1017.4 0.0
20/03:00am 19.8 15.3 10.0 53 5.3 S 24 30 13 16 1017.5 1017.4 0.0
20/02:30am 19.9 15.5 8.9 49 5.8 S 22 30 12 16 1017.5 1017.4 0.0
20/02:00am 20.0 15.8 9.9 52 5.4 S 22 28 12 15 1017.7 1017.6 0.0
20/01:30am 20.2 16.4 11.1 56 5.0 S 22 26 12 14 1017.9 1017.8 0.0
20/01:00am 19.8 18.2 14.0 69 3.3 S 15 19 8 10 1018.0 1017.9 0.0
20/12:30am 20.3 18.8 13.0 63 4.2 SSW 13 15 7 8 1018.2 1018.1 0.0
20/12:00am 20.4 19.7 12.1 59 4.6 SSE 7 13 4 7 1018.6 1018.4 0.0
 
Date/Time
EST
Temp
°C
App
Temp
°C
Dew
Point
°C
Rel
Hum
%
Delta-T
°C
Wind Press
QNH
hPa
Press
MSL
hPa
Rain since
9am
mm
Dir  Spd
km/h
Gust
km/h
Spd
kts
Gust
kts
19/11:30pm 20.5 19.9 12.2 59 4.7 SE 7 9 4 5 1018.7 1018.5 0.0
19/11:00pm 20.7 19.5 11.6 56 5.0 E 9 13 5 7 1018.9 1018.7 0.0
19/10:30pm 20.4 18.2 10.8 54 5.3 SE 13 17 7 9 1019.1 1018.9 0.0
19/10:00pm 20.2 18.1 11.1 56 5.0 SE 13 19 7 10 1019.1 1018.9 0.0
19/09:30pm 20.7 17.5 11.1 54 5.3 ESE 19 24 10 13 1019.0 1018.8 0.0
19/09:00pm 20.8 16.6 9.7 49 6.0 ESE 22 28 12 15 1018.9 1018.7 0.0
19/08:30pm 20.9 16.6 10.7 52 5.6 ESE 24 30 13 16 1018.7 1018.5 0.0
19/08:00pm 20.8 16.4 10.3 51 5.7 ESE 24 30 13 16 1018.3 1018.2 0.0
19/07:30pm 20.8 16.0 11.7 56 5.1 SE 28 33 15 18 1018.0 1017.9 0.0
19/07:00pm 20.6 16.4 11.0 54 5.3 SE 24 28 13 15 1017.6 1017.5 0.0
19/06:30pm 20.8 16.4 10.3 51 5.7 SE 24 28 13 15 1017.2 1017.0 0.0
19/06:00pm 21.2 16.6 9.8 48 6.1 ESE 24 28 13 15 1016.7 1016.5 0.0
19/05:30pm 21.5 17.6 9.4 46 6.5 ESE 20 26 11 14 1016.2 1016.0 0.0
19/05:00pm 21.9 17.4 7.0 38 7.7 ESE 20 24 11 13 1016.0 1015.8 0.0
19/04:30pm 22.1 17.4 5.9 35 8.2 E 20 26 11 14 1015.8 1015.6 0.0
19/04:00pm 22.5 17.8 7.9 39 7.7 ESE 22 26 12 14 1015.6 1015.4 0.0
19/03:30pm 22.9 17.7 5.3 32 8.8 ESE 22 26 12 14 1015.5 1015.3 0.0
19/03:00pm 23.2 17.3 5.6 32 8.9 ESE 26 30 14 16 1015.6 1015.4 0.0
19/02:30pm 23.8 18.0 4.2 28 9.7 ESE 24 30 13 16 1015.9 1015.7 0.0
19/02:00pm 23.9 17.5 3.2 26 10.0 SE 26 32 14 17 1016.3 1016.1 0.0
19/01:30pm 23.4 15.2 4.9 30 9.2 SE 37 41 20 22 1016.7 1016.5 0.0
19/01:00pm 22.9 15.7 9.3 42 7.3 SE 37 43 20 23 1017.3 1017.1 0.0
19/12:30pm 22.6 13.6 6.4 35 8.3 SE 43 52 23 28 1017.5 1017.4 0.0
19/12:00pm 21.9 11.7 7.0 38 7.7 SE 50 57 27 31 1017.8 1017.7 0.0
19/11:30am 21.4 10.5 9.0 45 6.6 SSE 56 65 30 35 1018.2 1018.1 0.0
19/11:00am 21.7 10.9 9.3 45 6.6 SSE 56 65 30 35 1018.6 1018.4 0.0
19/10:30am 22.0 11.2 7.8 40 7.4 SSE 54 65 29 35 1018.7 1018.5 0.0
19/10:00am 22.4 13.6 9.6 44 6.9 SSE 46 56 25 30 1019.3 1019.1 0.0
19/09:30am 22.8 12.5 9.6 43 7.2 SSE 54 59 29 32 1019.2 1019.0 0.0
19/09:00am 22.7 12.4 9.5 43 7.1 SSE 54 63 29 34 1019.1 1018.9 0.0
19/08:30am 22.7 14.0 9.8 44 7.0 SSE 46 54 25 29 1019.0 1018.8 0.0
19/08:00am 22.6 13.8 9.7 44 7.0 SSE 46 57 25 31 1018.7 1018.5 0.0
19/07:30am 22.3 13.6 9.8 45 6.8 SSE 46 54 25 29 1018.3 1018.2 0.0
19/07:00am 22.0 13.4 8.9 43 7.0 SSE 44 54 24 29 1018.1 1018.0 0.0
19/06:30am 21.8 14.7 10.9 50 6.0 SSE 39 48 21 26 1017.9 1017.8 0.0
19/06:00am 21.6 15.3 14.5 64 4.2 SSE 41 48 22 26 1017.6 1017.5 0.0
19/05:50am 21.5 17.3 14.6 65 4.1 SSE 30 46 16 25 1017.3 1017.1 0.0
19/05:30am 21.4 20.2 17.6 79 2.3 S 20 28 11 15 1017.2 1017.0 0.0
19/05:00am 20.4 22.4 19.1 92 0.8 WNW 7 11 4 6 1016.6 1016.4 0.0
19/04:30am 21.0 22.4 20.3 96 0.5 NW 13 19 7 10 1016.1 1015.9 0.0
19/04:00am 21.0 22.1 20.5 97 0.3 NW 15 19 8 10 1015.9 1015.7 0.0
19/03:30am 21.1 22.3 20.6 97 0.3 NW 15 17 8 9 1016.0 1015.8 0.0
19/03:00am 21.1 22.5 20.4 96 0.5 WNW 13 15 7 8 1016.2 1016.0 0.0
19/02:30am 21.2 23.1 20.5 96 0.5 WNW 11 15 6 8 1016.2 1016.0 0.0
19/02:00am 21.4 22.6 20.6 95 0.5 NW 15 17 8 9 1016.5 1016.3 0.0
19/01:30am 21.4 22.2 20.6 95 0.5 NW 17 20 9 11 1016.4 1016.2 0.0
19/01:00am 21.5 22.2 20.5 94 0.6 NW 17 20 9 11 1016.4 1016.2 0.0
19/12:30am 21.5 21.6 20.3 93 0.8 NW 20 20 11 11 1016.5 1016.3 0.0
19/12:00am 21.6 21.6 20.2 92 0.9 NW 20 24 11 13 1016.6 1016.4 0.0
 
Date/Time
EST
Temp
°C
App
Temp
°C
Dew
Point
°C
Rel
Hum
%
Delta-T
°C
Wind Press
QNH
hPa
Press
MSL
hPa
Rain since
9am
mm
Dir  Spd
km/h
Gust
km/h
Spd
kts
Gust
kts
18/11:30pm 21.8 22.2 20.6 93 0.8 NNW 19 22 10 12 1016.8 1016.6 0.0
18/11:00pm 21.8 22.0 20.1 90 1.1 NW 19 20 10 11 1017.2 1017.0 0.0
18/10:30pm 21.9 22.0 20.0 89 1.2 NW 19 22 10 12 1017.3 1017.1 0.0
18/10:00pm 22.0 22.5 20.1 89 1.2 NW 17 20 9 11 1017.1 1016.9 0.0
18/09:30pm 22.0 22.1 19.9 88 1.3 NW 19 20 10 11 1017.1 1016.9 0.0
18/09:00pm 22.1 22.6 20.0 88 1.3 NW 17 20 9 11 1017.1 1016.9 0.0
18/08:30pm 22.2 21.7 19.9 87 1.5 NW 22 26 12 14 1016.8 1016.6 0.0
18/08:00pm 22.3 21.7 19.8 86 1.6 NW 22 28 12 15 1016.5 1016.3 0.0
18/07:30pm 22.3 21.7 19.7 85 1.7 NW 22 28 12 15 1016.1 1015.9 0.0
18/07:00pm 22.5 21.6 19.9 85 1.7 NW 24 30 13 16 1015.9 1015.7 0.0
18/06:30pm 22.5 21.1 19.7 84 1.8 NW 26 30 14 16 1015.6 1015.4 0.0
18/06:00pm 22.7 21.7 19.7 83 1.9 NW 24 28 13 15 1015.3 1015.1 0.0
18/05:30pm 23.4 22.3 19.5 79 2.5 NW 24 30 13 16 1015.1 1014.9 0.0
18/05:00pm 24.2 23.8 19.3 74 3.1 NNW 20 26 11 14 1014.9 1014.7 0.0
18/04:30pm 25.4 26.7 19.3 69 3.9 NW 11 15 6 8 1014.9 1014.7 0.0
18/04:00pm 25.6 27.0 19.5 69 3.9 WNW 11 15 6 8 1014.7 1014.5 0.0
18/03:30pm 24.6 25.9 19.4 73 3.3 ESE 11 15 6 8 1014.7 1014.5 0.0
18/03:00pm 24.6 25.5 19.2 72 3.5 ESE 13 13 7 7 1014.8 1014.6 0.0
18/02:30pm 24.9 25.2 19.5 72 3.5 ESE 17 19 9 10 1015.1 1014.9 0.0
18/02:00pm 24.8 25.1 19.6 73 3.4 ESE 17 19 9 10 1015.3 1015.1 0.0
18/01:30pm 25.4 26.2 19.1 68 4.0 ESE 13 19 7 10 1015.8 1015.6 0.0
18/01:00pm 26.4 26.5 18.3 61 5.1 NW 15 19 8 10 1016.1 1015.9 0.0
18/12:30pm 25.8 25.0 18.5 64 4.6 NW 20 24 11 13 1016.4 1016.2 0.0
18/12:00pm 25.7 25.2 18.6 65 4.5 NW 19 24 10 13 1016.7 1016.5 0.0
18/11:30am 24.9 23.6 18.1 66 4.3 NNW 22 28 12 15 1017.1 1016.9 0.0
18/11:00am 24.6 23.4 18.5 69 3.9 NNW 22 26 12 14 1017.4 1017.3 0.0
18/10:30am 24.3 23.2 18.7 71 3.6 NNW 22 26 12 14 1017.7 1017.6 0.0
18/10:00am 24.0 23.8 18.6 72 3.4 NNW 17 20 9 11 1017.9 1017.8 0.0
18/09:30am 23.9 23.7 18.5 72 3.4 NW 17 20 9 11 1018.0 1017.9 0.0
18/09:00am 23.6 24.3 18.9 75 3.0 NW 13 17 7 9 1017.9 1017.8 0.2
18/08:30am 22.9 22.9 18.9 78 2.5 NW 17 20 9 11 1017.7 1017.6 0.2
18/08:00am 22.1 22.4 18.7 81 2.1 NW 15 20 8 11 1017.5 1017.4 0.2
18/07:37am 21.9 23.1 19.1 84 1.8 NNW 11 15 6 8 1017.2 1017.0 0.2
18/07:30am 21.8 22.6 19.0 84 1.8 NNW 13 17 7 9 1017.1 1016.9 0.2
18/07:01am 21.3 22.0 18.9 86 1.5 NNW 13 17 7 9 1016.8 1016.6 0.2
18/07:00am 21.3 22.0 18.9 86 1.5 NNW 13 17 7 9 1016.8 1016.6 0.2
18/06:30am 21.0 21.4 18.9 88 1.3 NNW 15 19 8 10 1016.4 1016.2 0.2
18/06:00am 20.9 21.3 19.0 89 1.2 NNW 15 19 8 10 1016.0 1015.8 0.2
18/05:30am 20.8 20.7 18.7 88 1.3 NNW 17 20 9 11 1015.4 1015.2 0.2
18/05:00am 20.9 21.5 18.7 87 1.4 NNW 13 15 7 8 1015.3 1015.1 0.2
18/04:30am 20.9 21.2 18.7 87 1.4 NNW 15 19 8 10 1015.0 1014.8 0.2
18/04:00am 20.9 21.2 18.7 87 1.4 NNW 15 19 8 10 1014.9 1014.7 0.2
18/03:30am 21.0 21.3 18.8 87 1.4 NNW 15 19 8 10 1015.0 1014.8 0.2
18/03:00am 21.1 20.6 18.7 86 1.5 NNW 19 22 10 12 1014.9 1014.7 0.2
18/02:30am 21.2 20.8 18.8 86 1.5 NNW 19 20 10 11 1015.1 1014.9 0.2
18/02:00am 21.4 20.8 18.8 85 1.6 NNW 20 24 11 13 1015.0 1014.8 0.2
18/01:30am 21.5 20.9 18.9 85 1.6 NNW 20 24 11 13 1015.1 1014.9 0.2
18/01:00am 21.7 20.3 18.9 84 1.8 NNW 24 30 13 16 1015.2 1015.0 0.2
18/12:30am 21.8 20.4 18.8 83 1.9 NNW 24 30 13 16 1015.3 1015.1 0.2
18/12:00am 21.8 20.8 18.8 83 1.9 NNW 22 28 12 15 1015.6 1015.4 0.2
 
Date/Time
EST
Temp
°C
App
Temp
°C
Dew
Point
°C
Rel
Hum
%
Delta-T
°C
Wind Press
QNH
hPa
Press
MSL
hPa
Rain since
9am
mm
Dir  Spd
km/h
Gust
km/h
Spd
kts
Gust
kts
17/11:30pm 22.0 19.8 18.6 81 2.1 NNW 28 35 15 19 1015.6 1015.4 0.2
17/11:00pm 22.1 20.0 18.9 82 2.0 NNW 28 33 15 18 1015.6 1015.4 0.2
17/10:30pm 22.0 20.2 18.8 82 2.0 NNW 26 32 14 17 1015.6 1015.4 0.2
17/10:00pm 22.0 20.2 18.8 82 2.0 NNW 26 30 14 16 1015.6 1015.4 0.2
17/09:30pm 22.1 20.0 18.9 82 2.0 NNW 28 32 15 17 1015.7 1015.5 0.2
17/09:00pm 22.2 20.0 18.6 80 2.3 NNW 28 33 15 18 1015.6 1015.4 0.2
17/08:30pm 22.3 20.1 18.7 80 2.3 NNW 28 33 15 18 1015.6 1015.4 0.2
17/08:00pm 22.3 19.5 18.3 78 2.5 NNW 30 33 16 18 1015.4 1015.2 0.2
17/07:30pm 22.3 19.6 18.5 79 2.4 NNW 30 35 16 19 1015.1 1014.9 0.2
17/07:00pm 22.4 19.3 18.4 78 2.5 NNW 32 37 17 20 1014.6 1014.4 0.2
17/06:30pm 22.5 19.4 18.5 78 2.5 NNW 32 35 17 19 1014.4 1014.2 0.2
17/06:00pm 22.8 21.0 18.8 78 2.5 NNW 26 33 14 18 1014.3 1014.1 0.2
17/05:30pm 23.3 20.6 18.4 74 3.1 NNW 30 35 16 19 1014.0 1013.8 0.2
17/05:00pm 23.8 21.1 18.4 72 3.4 NNW 30 33 16 18 1013.8 1013.6 0.2
17/04:30pm 24.2 21.5 18.4 70 3.7 NNW 30 35 16 19 1013.7 1013.5 0.2
17/04:00pm 24.4 21.6 18.1 68 4.0 NNW 30 35 16 19 1013.5 1013.3 0.2
17/03:30pm 25.2 23.0 17.9 64 4.6 NNW 26 32 14 17 1013.5 1013.3 0.2
17/03:00pm 24.8 22.4 18.3 67 4.1 NW 28 37 15 20 1013.5 1013.3 0.2
17/02:30pm 25.0 22.3 18.4 66 4.2 NW 30 33 16 18 1013.7 1013.5 0.2
17/02:00pm 24.6 21.4 18.1 67 4.1 NW 32 39 17 21 1014.0 1013.8 0.2

Other Formats:

Comma delimited format used in spreadsheet applications
http://www.bom.gov.au/fwo/IDQ60801/IDQ60801.94368.axf

JavaScript Object Notation format (JSON) in row-major order
http://www.bom.gov.au/fwo/IDQ60801/IDQ60801.94368.json